Time;durP1;ratioP1;P1;durP2;ratioP2;P2;SDS_P1;SDS_P2;PMS_P1;PMS_P2;Temp;Humidity;BMP_temperature;BMP_pressure;BME280_temperature;BME280_humidity;BME280_pressure;Samples;Min_cycle;Max_cycle;Signal;HPM_P1;HPM_P2
2021/05/07 00:01:07;;;;;;;3.35;1.15;;;;;;;6.76;77.59;100098.16;4417663;32;20054;-71
2021/05/07 00:03:33;;;;;;;4.53;1.42;;;;;;;6.79;77.45;100090.91;4407220;32;20041;-71
2021/05/07 00:05:59;;;;;;;4.37;1.70;;;;;;;6.62;77.35;100098.41;4407597;32;20121;-70
2021/05/07 00:08:27;;;;;;;6.05;1.83;;;;;;;6.53;77.79;100098.16;4410380;32;20121;-70
2021/05/07 00:10:54;;;;;;;2.42;1.00;;;;;;;6.90;75.70;100097.09;4408782;32;20715;-71
2021/05/07 00:13:20;;;;;;;2.58;0.70;;;;;;;6.57;75.92;100112.09;4401769;32;20468;-72
2021/05/07 00:15:46;;;;;;;1.52;0.80;;;;;;;6.67;75.11;100111.09;4396197;32;20039;-71
2021/05/07 00:18:12;;;;;;;4.25;1.05;;;;;;;6.68;75.08;100107.88;4398567;32;20719;-71
2021/05/07 00:20:37;;;;;;;1.85;0.82;;;;;;;6.72;74.75;100116.22;4398979;32;20446;-71
2021/05/07 00:23:03;;;;;;;1.77;0.70;;;;;;;7.00;73.80;100116.44;4396556;32;20077;-70
2021/05/07 00:25:29;;;;;;;3.17;0.75;;;;;;;7.09;73.39;100116.66;4394828;32;20450;-72
2021/05/07 00:28:06;;;;;;;2.50;0.85;;;;;;;6.77;74.83;100124.09;4399725;32;20034;-70
2021/05/07 00:30:33;;;;;;;2.58;0.82;;;;;;;6.75;74.98;100118.91;4397108;32;20117;-71
2021/05/07 00:32:59;;;;;;;3.20;0.80;;;;;;;6.76;75.36;100125.31;4398369;32;20517;-71
2021/05/07 00:35:25;;;;;;;3.20;1.40;;;;;;;6.90;74.51;100130.66;4397724;32;20074;-72
2021/05/07 00:37:51;;;;;;;3.20;1.60;;;;;;;6.99;74.48;100134.44;4399671;32;20176;-72
2021/05/07 00:40:17;;;;;;;4.25;1.30;;;;;;;6.96;75.25;100135.31;4396197;32;20042;-71
2021/05/07 00:42:43;;;;;;;4.82;2.28;;;;;;;6.65;75.73;100135.87;4397593;32;20414;-72
2021/05/07 00:45:11;;;;;;;2.90;1.52;;;;;;;6.44;77.33;100137.06;4397165;32;20598;-71
2021/05/07 00:47:41;;;;;;;4.12;1.98;;;;;;;6.47;77.80;100141.03;4399911;32;20130;-71
2021/05/07 00:50:07;;;;;;;4.62;2.80;;;;;;;6.37;78.30;100148.34;4395454;32;20119;-73
2021/05/07 00:52:37;;;;;;;3.97;2.45;;;;;;;6.55;78.25;100150.84;4397905;32;20112;-71
2021/05/07 00:55:04;;;;;;;3.92;2.20;;;;;;;6.59;77.96;100154.38;4394023;32;20077;-72
2021/05/07 00:57:32;;;;;;;6.40;2.87;;;;;;;6.21;80.17;100162.19;4397910;32;20368;-73
2021/05/07 00:59:58;;;;;;;6.95;3.97;;;;;;;6.23;80.08;100162.56;4397839;32;20078;-71
2021/05/07 01:02:24;;;;;;;24.90;12.70;;;;;;;6.28;80.45;100169.66;4398132;32;20084;-72
2021/05/07 01:04:50;;;;;;;26.33;13.02;;;;;;;6.24;80.09;100166.13;4400190;32;20159;-73
2021/05/07 01:07:16;;;;;;;26.08;13.45;;;;;;;6.17;80.22;100167.06;4398660;32;20050;-71
2021/05/07 01:09:44;;;;;;;20.12;11.25;;;;;;;6.02;80.87;100160.09;4397725;32;20086;-72
2021/05/07 01:12:10;;;;;;;30.60;14.30;;;;;;;5.95;81.45;100166.56;4385374;32;20046;-72
2021/05/07 01:14:36;;;;;;;25.60;12.52;;;;;;;5.85;81.37;100167.50;4397049;32;20094;-71
2021/05/07 01:17:04;;;;;;;22.33;11.75;;;;;;;5.85;81.66;100164.72;4395410;32;20709;-72
2021/05/07 01:19:30;;;;;;;21.65;10.13;;;;;;;5.87;82.05;100169.88;4398517;32;20120;-71
2021/05/07 01:21:56;;;;;;;19.30;9.80;;;;;;;5.80;81.87;100162.34;4398953;32;20042;-73
2021/05/07 01:24:26;;;;;;;14.87;7.80;;;;;;;5.82;81.97;100162.78;4397134;32;20528;-73
2021/05/07 01:26:53;;;;;;;12.68;6.00;;;;;;;5.83;81.89;100166.37;4398353;32;20573;-72
2021/05/07 01:29:19;;;;;;;10.73;5.78;;;;;;;5.79;81.86;100174.75;4393230;32;20668;-72
2021/05/07 01:31:46;;;;;;;20.77;5.10;;;;;;;5.82;82.24;100170.34;4398381;32;20052;-74
2021/05/07 01:34:12;;;;;;;7.10;3.20;;;;;;;5.78;82.21;100166.78;4400268;32;20516;-72
2021/05/07 01:36:38;;;;;;;6.68;2.75;;;;;;;5.70;82.84;100170.88;4395698;32;20030;-74
2021/05/07 01:39:04;;;;;;;6.93;3.20;;;;;;;5.73;82.79;100173.63;4396933;32;20473;-73
2021/05/07 01:41:30;;;;;;;3.97;1.83;;;;;;;5.88;81.90;100169.47;4398306;32;20083;-74
2021/05/07 01:43:57;;;;;;;3.50;1.42;;;;;;;5.96;82.36;100167.38;4398002;32;20406;-73
2021/05/07 01:46:23;;;;;;;6.03;1.42;;;;;;;5.96;82.23;100175.75;4395548;32;20109;-73
2021/05/07 01:48:49;;;;;;;9.30;1.33;;;;;;;6.03;82.25;100173.63;4394300;32;20082;-74
2021/05/07 01:51:15;;;;;;;5.43;1.15;;;;;;;6.10;81.99;100172.72;4398216;32;20092;-72
2021/05/07 01:53:41;;;;;;;7.05;1.58;;;;;;;6.16;81.90;100171.03;4395818;32;20042;-74
2021/05/07 01:56:07;;;;;;;9.02;3.05;;;;;;;6.26;81.92;100180.47;4397031;32;20034;-72
2021/05/07 01:58:32;;;;;;;9.68;3.15;;;;;;;6.22;81.22;100174.16;4397203;32;20544;-74
2021/05/07 02:00:58;;;;;;;9.20;3.80;;;;;;;6.20;81.17;100177.38;4397787;32;20158;-74
2021/05/07 02:03:24;;;;;;;8.88;4.47;;;;;;;6.14;80.96;100179.06;4395779;32;20434;-71
2021/05/07 02:05:50;;;;;;;12.75;3.85;;;;;;;5.98;81.69;100179.69;4397521;32;20128;-72
2021/05/07 02:08:16;;;;;;;6.97;3.53;;;;;;;5.90;82.40;100185.81;4393709;32;20083;-72
2021/05/07 02:10:42;;;;;;;5.18;2.60;;;;;;;5.88;82.81;100188.22;4397525;32;20073;-71
2021/05/07 02:13:11;;;;;;;6.32;2.22;;;;;;;5.81;83.21;100193.88;4384142;32;20035;-72
2021/05/07 02:15:37;;;;;;;8.55;2.25;;;;;;;5.86;83.44;100202.59;4395668;32;20680;-72
2021/05/07 02:18:04;;;;;;;10.90;3.60;;;;;;;5.78;83.58;100195.50;4399146;32;20455;-72
2021/05/07 02:20:30;;;;;;;11.55;3.83;;;;;;;5.67;83.73;100202.44;4397369;32;20048;-71
2021/05/07 02:22:57;;;;;;;8.05;3.87;;;;;;;5.67;83.82;100211.59;4395028;32;20490;-72
2021/05/07 02:25:25;;;;;;;12.63;4.85;;;;;;;5.66;83.64;100204.44;4393010;32;20116;-73
2021/05/07 02:27:53;;;;;;;15.73;5.28;;;;;;;5.67;83.80;100208.81;4397061;32;20027;-71
2021/05/07 02:30:22;;;;;;;12.73;4.87;;;;;;;5.64;83.32;100206.84;4395901;32;20066;-74
2021/05/07 02:32:48;;;;;;;9.82;4.87;;;;;;;5.59;83.72;100210.09;4396876;32;21262;-72
2021/05/07 02:35:14;;;;;;;8.52;4.03;;;;;;;5.52;83.15;100204.59;4397787;32;20112;-74
2021/05/07 02:37:40;;;;;;;11.50;4.32;;;;;;;5.50;83.51;100209.03;4395818;32;20541;-75
2021/05/07 02:40:07;;;;;;;10.32;3.00;;;;;;;5.46;84.05;100205.50;4396019;32;20073;-73
2021/05/07 02:42:34;;;;;;;11.05;3.35;;;;;;;5.38;84.79;100207.59;4397150;32;20072;-72
2021/05/07 02:45:03;;;;;;;8.00;2.90;;;;;;;5.46;85.19;100225.03;4383558;32;20060;-72
2021/05/07 02:47:31;;;;;;;11.70;2.65;;;;;;;5.60;84.78;100224.84;4394199;32;20123;-74
2021/05/07 02:49:57;;;;;;;12.20;2.53;;;;;;;5.73;84.30;100223.87;4395296;32;20104;-74
2021/05/07 02:52:23;;;;;;;6.55;2.60;;;;;;;5.77;83.75;100235.03;4395883;32;20038;-74
2021/05/07 02:54:49;;;;;;;7.45;2.60;;;;;;;5.77;84.13;100233.00;4395915;32;20107;-75
2021/05/07 02:57:14;;;;;;;7.78;2.58;;;;;;;5.78;84.06;100234.59;4395106;32;20065;-73
2021/05/07 02:59:40;;;;;;;11.12;2.62;;;;;;;5.77;83.95;100235.03;4396348;32;20412;-74
2021/05/07 03:02:06;;;;;;;9.13;2.85;;;;;;;5.85;83.94;100237.31;4396914;32;20043;-72
2021/05/07 03:04:31;;;;;;;8.48;2.55;;;;;;;6.05;83.08;100237.47;4397600;32;20444;-74
2021/05/07 03:06:59;;;;;;;8.38;2.70;;;;;;;6.05;83.03;100240.25;4397206;32;20065;-74
2021/05/07 03:09:26;;;;;;;7.53;2.50;;;;;;;6.09;82.74;100238.19;4396409;32;20104;-73
2021/05/07 03:11:52;;;;;;;8.52;2.70;;;;;;;6.00;83.05;100233.13;4395382;32;20093;-72
2021/05/07 03:14:18;;;;;;;12.75;3.03;;;;;;;6.06;83.55;100234.25;4395159;32;20038;-72
2021/05/07 03:16:44;;;;;;;6.32;2.40;;;;;;;6.07;83.06;100247.00;4394391;32;20128;-75
2021/05/07 03:19:09;;;;;;;8.27;3.05;;;;;;;6.08;82.79;100237.41;4393709;32;20026;-74
2021/05/07 03:21:36;;;;;;;6.37;2.70;;;;;;;6.10;82.64;100239.78;4398310;32;20570;-74
2021/05/07 03:24:02;;;;;;;8.75;3.15;;;;;;;6.10;82.77;100234.19;4394398;32;20086;-75
2021/05/07 03:26:27;;;;;;;12.15;2.83;;;;;;;6.09;82.70;100233.41;4397801;32;20066;-75
2021/05/07 03:28:53;;;;;;;4.87;2.78;;;;;;;6.10;82.49;100240.56;4398412;32;20154;-75
2021/05/07 03:31:19;;;;;;;10.77;3.17;;;;;;;5.97;83.05;100250.72;4394053;32;20030;-73
2021/05/07 03:33:45;;;;;;;10.38;5.30;;;;;;;6.03;83.13;100257.44;4396248;32;20118;-74
2021/05/07 03:36:11;;;;;;;6.35;3.12;;;;;;;6.10;83.27;100262.12;4394053;32;20184;-72
2021/05/07 03:38:37;;;;;;;11.98;3.47;;;;;;;6.05;83.18;100265.38;4396875;32;20050;-72
2021/05/07 03:41:03;;;;;;;12.07;3.37;;;;;;;5.99;83.51;100269.84;4396491;32;20069;-73
2021/05/07 03:43:29;;;;;;;8.27;2.85;;;;;;;5.94;83.35;100268.31;4395723;32;20154;-73
2021/05/07 03:45:54;;;;;;;11.07;2.80;;;;;;;5.92;84.00;100267.94;4396218;32;20112;-73
2021/05/07 03:48:21;;;;;;;6.47;3.33;;;;;;;5.92;83.90;100270.72;4397321;32;20053;-74
2021/05/07 03:50:48;;;;;;;8.82;3.50;;;;;;;5.91;83.97;100274.75;4398232;32;20109;-74
2021/05/07 03:53:15;;;;;;;8.85;3.45;;;;;;;5.87;84.41;100262.03;4400039;32;20073;-73
2021/05/07 03:55:41;;;;;;;8.70;3.28;;;;;;;5.86;84.80;100269.59;4397852;32;20026;-74
2021/05/07 03:58:08;;;;;;;12.20;3.42;;;;;;;5.86;84.40;100277.97;4398928;32;20465;-72
2021/05/07 04:00:34;;;;;;;6.45;3.25;;;;;;;5.87;84.69;100282.34;4396418;32;20451;-73
2021/05/07 04:03:01;;;;;;;13.52;3.28;;;;;;;5.86;84.65;100280.78;4395564;32;20070;-74
2021/05/07 04:05:26;;;;;;;14.20;3.37;;;;;;;5.96;85.61;100290.25;4397848;32;20046;-74
2021/05/07 04:08:26;;;;;;;10.32;3.37;;;;;;;6.08;85.51;100281.31;4395624;32;20563;-72
2021/05/07 04:10:42;;;;;;;9.15;3.17;;;;;;;6.28;84.57;100289.81;4397575;32;20208;-73
2021/05/07 04:13:40;;;;;;;11.02;3.35;;;;;;;6.47;84.14;100289.91;4400186;32;20121;-74
2021/05/07 04:15:54;;;;;;;6.78;3.30;;;;;;;6.47;84.30;100287.13;4399501;32;20046;-74
2021/05/07 04:18:20;;;;;;;10.20;3.55;;;;;;;6.46;83.84;100285.56;4396671;32;20074;-74
2021/05/07 04:20:45;;;;;;;9.52;3.50;;;;;;;6.45;83.32;100299.94;4399686;32;20103;-75
2021/05/07 04:23:11;;;;;;;13.62;3.70;;;;;;;6.45;83.77;100299.94;4382882;32;20090;-74
2021/05/07 04:25:37;;;;;;;11.77;3.78;;;;;;;6.50;83.92;100300.25;4401121;32;20628;-73
2021/05/07 04:28:03;;;;;;;12.00;4.20;;;;;;;6.54;83.73;100303.81;4398878;32;20074;-73
2021/05/07 04:30:29;;;;;;;13.62;4.10;;;;;;;6.61;83.55;100298.09;4398707;32;20107;-72
2021/05/07 04:32:54;;;;;;;11.98;4.25;;;;;;;6.76;83.23;100307.06;4399672;32;20083;-73
2021/05/07 04:35:21;;;;;;;8.90;3.40;;;;;;;6.93;83.81;100311.59;4397863;32;20053;-75
2021/05/07 04:37:46;;;;;;;14.02;4.07;;;;;;;7.01;82.87;100315.84;4400851;32;20054;-72
2021/05/07 04:40:13;;;;;;;14.63;4.28;;;;;;;7.15;83.19;100318.44;4397612;32;20483;-73
2021/05/07 04:42:38;;;;;;;17.27;3.92;;;;;;;7.31;82.44;100312.94;4396979;32;20073;-73
2021/05/07 04:45:05;;;;;;;20.73;7.22;;;;;;;7.33;81.54;100313.31;4400805;32;20121;-76
2021/05/07 04:47:31;;;;;;;12.18;3.75;;;;;;;7.40;81.83;100324.38;4397238;32;20479;-74
2021/05/07 04:49:57;;;;;;;13.98;4.03;;;;;;;7.40;81.91;100329.97;4398056;32;20053;-74
2021/05/07 04:52:23;;;;;;;11.45;4.00;;;;;;;7.28;82.78;100331.38;4398108;32;20050;-74
2021/05/07 04:54:49;;;;;;;14.10;4.75;;;;;;;7.25;82.29;100329.44;4383400;32;20054;-74
2021/05/07 04:57:15;;;;;;;12.13;4.32;;;;;;;7.26;82.00;100333.00;4398994;32;20441;-74
2021/05/07 04:59:41;;;;;;;12.80;4.87;;;;;;;7.26;80.82;100345.00;4397477;32;20030;-74
2021/05/07 05:02:06;;;;;;;14.13;4.18;;;;;;;7.26;80.74;100335.81;4394882;32;20475;-73
2021/05/07 05:04:32;;;;;;;18.20;4.87;;;;;;;7.32;80.85;100331.31;4398359;32;20183;-73
2021/05/07 05:06:58;;;;;;;13.10;4.43;;;;;;;7.40;80.44;100338.37;4396744;32;20101;-73
2021/05/07 05:09:24;;;;;;;10.65;4.28;;;;;;;7.49;80.25;100336.59;4398513;32;20115;-74
2021/05/07 05:11:50;;;;;;;13.23;4.60;;;;;;;7.64;80.06;100349.13;4397712;32;20042;-73
2021/05/07 05:14:16;;;;;;;15.05;4.28;;;;;;;7.73;80.02;100352.16;4398128;32;20058;-74
2021/05/07 05:16:41;;;;;;;18.15;4.53;;;;;;;8.01;79.71;100360.00;4396812;32;20411;-73
2021/05/07 05:19:07;;;;;;;15.25;4.60;;;;;;;8.18;78.98;100361.69;4397692;32;20061;-73
2021/05/07 05:21:33;;;;;;;16.23;4.82;;;;;;;8.56;77.99;100364.12;4396056;32;20648;-74
2021/05/07 05:23:59;;;;;;;17.90;4.93;;;;;;;8.73;77.40;100363.72;4398051;32;20068;-74
2021/05/07 05:26:25;;;;;;;12.63;3.50;;;;;;;8.82;76.89;100365.91;4398370;32;20104;-73
2021/05/07 05:28:51;;;;;;;8.73;2.37;;;;;;;8.71;76.78;100373.81;4400053;32;20089;-74
2021/05/07 05:31:17;;;;;;;7.40;2.45;;;;;;;8.74;75.22;100370.13;4398007;32;20042;-73
2021/05/07 05:33:42;;;;;;;5.95;2.15;;;;;;;8.82;75.47;100374.34;4398320;32;20038;-73
2021/05/07 05:36:08;;;;;;;8.15;2.10;;;;;;;8.91;75.40;100382.94;4396937;32;20046;-73
2021/05/07 05:38:34;;;;;;;12.00;2.45;;;;;;;9.03;74.38;100383.06;4396476;32;20053;-74
2021/05/07 05:41:00;;;;;;;5.15;1.45;;;;;;;9.20;72.22;100383.84;4396331;32;20148;-73
2021/05/07 05:43:25;;;;;;;7.47;2.00;;;;;;;9.37;72.36;100389.06;4396349;32;20073;-73
2021/05/07 05:45:51;;;;;;;4.25;1.50;;;;;;;9.46;70.61;100385.63;4397995;32;20094;-73
2021/05/07 05:48:18;;;;;;;7.20;1.60;;;;;;;9.54;70.17;100395.44;4395585;32;20422;-73
2021/05/07 05:50:47;;;;;;;7.18;1.95;;;;;;;9.63;69.77;100398.41;4384132;32;20078;-75
2021/05/07 05:53:14;;;;;;;7.12;1.30;;;;;;;9.80;70.57;100405.59;4396443;32;20500;-73
2021/05/07 05:55:40;;;;;;;7.50;1.62;;;;;;;9.85;69.53;100402.28;4382548;32;20050;-74
2021/05/07 05:58:05;;;;;;;7.57;2.22;;;;;;;9.91;68.76;100404.09;4394938;32;20087;-74
2021/05/07 06:00:32;;;;;;;7.40;1.80;;;;;;;9.92;68.07;100407.69;4395322;32;20050;-74
2021/05/07 06:02:58;;;;;;;7.07;2.40;;;;;;;9.98;68.98;100409.50;4395047;32;20091;-74
2021/05/07 06:05:24;;;;;;;2.85;1.60;;;;;;;10.06;69.64;100408.12;4395249;32;20097;-73
2021/05/07 06:07:50;;;;;;;6.62;1.52;;;;;;;10.16;68.71;100411.09;4399039;32;20513;-73
2021/05/07 06:10:17;;;;;;;5.05;1.73;;;;;;;10.14;66.76;100403.09;4394174;32;20106;-73
2021/05/07 06:12:45;;;;;;;7.07;1.62;;;;;;;10.17;67.72;100407.84;4397362;32;20061;-73
2021/05/07 06:15:12;;;;;;;6.32;1.95;;;;;;;10.19;67.95;100413.81;4396966;32;20495;-73
2021/05/07 06:17:39;;;;;;;5.97;1.85;;;;;;;10.16;67.13;100419.53;4396325;32;20045;-73
2021/05/07 06:20:08;;;;;;;10.10;2.15;;;;;;;10.07;68.01;100420.94;4385287;32;20419;-74
2021/05/07 06:22:35;;;;;;;3.65;1.70;;;;;;;9.97;66.70;100418.38;4396360;32;20042;-73
2021/05/07 06:25:06;;;;;;;11.82;2.17;;;;;;;10.04;67.91;100421.03;4391781;32;20117;-74
2021/05/07 06:27:32;;;;;;;10.18;1.87;;;;;;;9.96;66.69;100422.44;4395724;32;20093;-74
2021/05/07 06:29:58;;;;;;;9.15;2.17;;;;;;;9.94;67.25;100420.06;4396848;32;20060;-73
2021/05/07 06:32:26;;;;;;;7.75;1.80;;;;;;;9.93;66.58;100412.06;4380925;32;20196;-74
2021/05/07 06:34:51;;;;;;;8.35;2.75;;;;;;;10.04;67.36;100421.03;4389886;32;20112;-73
2021/05/07 06:37:17;;;;;;;9.98;2.58;;;;;;;10.10;67.06;100424.91;4393708;32;21092;-74
2021/05/07 06:39:44;;;;;;;11.98;2.45;;;;;;;10.21;66.57;100431.03;4386211;32;20073;-73
2021/05/07 06:42:09;;;;;;;5.65;1.90;;;;;;;10.42;66.42;100438.88;4390561;32;20791;-74
2021/05/07 06:44:35;;;;;;;6.72;2.17;;;;;;;10.59;65.52;100437.59;4382994;32;20107;-73
2021/05/07 06:47:01;;;;;;;12.37;1.90;;;;;;;10.89;64.83;100439.88;4389004;32;20030;-74
2021/05/07 06:49:28;;;;;;;6.57;1.87;;;;;;;11.11;63.37;100435.19;4390439;32;20488;-73
2021/05/07 06:51:54;;;;;;;11.82;2.10;;;;;;;11.36;62.21;100434.41;4389355;32;20474;-75
2021/05/07 06:54:26;;;;;;;5.85;1.83;;;;;;;11.49;60.20;100446.47;4389362;32;20104;-74
2021/05/07 06:56:55;;;;;;;5.68;2.10;;;;;;;11.67;60.09;100444.69;4391857;32;20777;-75
2021/05/07 06:59:21;;;;;;;7.82;2.33;;;;;;;11.75;60.43;100448.81;4383872;32;20086;-75
2021/05/07 07:01:47;;;;;;;8.68;2.33;;;;;;;11.68;59.21;100451.09;4382028;32;20106;-75
2021/05/07 07:04:13;;;;;;;9.38;2.03;;;;;;;11.75;58.73;100456.47;4382972;32;20059;-74
2021/05/07 07:06:39;;;;;;;12.25;2.08;;;;;;;11.52;59.06;100449.16;4392627;32;20054;-75
2021/05/07 07:09:05;;;;;;;6.05;1.80;;;;;;;11.54;59.63;100457.94;4392087;32;20406;-76
2021/05/07 07:11:31;;;;;;;8.85;1.73;;;;;;;11.54;58.94;100463.59;4391017;32;20089;-75
2021/05/07 07:13:57;;;;;;;7.12;1.80;;;;;;;11.58;59.54;100463.47;4376621;32;20109;-74
2021/05/07 07:16:23;;;;;;;8.60;2.12;;;;;;;11.52;60.29;100460.44;4390818;32;20046;-74
2021/05/07 07:18:49;;;;;;;7.10;1.83;;;;;;;11.53;59.04;100461.22;4392137;32;20038;-74
2021/05/07 07:21:16;;;;;;;9.30;1.77;;;;;;;11.68;58.41;100463.16;4389971;32;20042;-74
2021/05/07 07:23:41;;;;;;;8.45;1.55;;;;;;;11.64;57.16;100472.97;4389092;32;20077;-76
2021/05/07 07:26:07;;;;;;;11.70;1.87;;;;;;;11.83;57.77;100471.94;4395911;32;20105;-74
2021/05/07 07:28:35;;;;;;;10.07;2.08;;;;;;;12.13;56.72;100472.06;4393421;32;20160;-75
2021/05/07 07:31:02;;;;;;;7.15;2.00;;;;;;;12.22;56.73;100493.16;4392455;32;20137;-75
2021/05/07 07:33:28;;;;;;;8.98;1.73;;;;;;;11.89;56.38;100489.84;4389566;32;20489;-76
2021/05/07 07:35:54;;;;;;;12.18;1.70;;;;;;;12.15;56.89;100497.00;4391289;32;20085;-76
2021/05/07 07:38:20;;;;;;;8.52;2.05;;;;;;;12.19;55.46;100483.59;4391972;32;20094;-76
2021/05/07 07:40:46;;;;;;;6.85;1.65;;;;;;;12.20;54.65;100499.25;4388516;32;20086;-75
2021/05/07 07:43:12;;;;;;;8.45;1.50;;;;;;;12.26;53.71;100496.66;4393487;32;20634;-76
2021/05/07 07:45:37;;;;;;;5.05;1.48;;;;;;;12.23;55.01;100498.34;4392412;32;20146;-75
2021/05/07 07:48:04;;;;;;;6.47;1.12;;;;;;;12.33;54.15;100494.37;4392278;32;20178;-76
2021/05/07 07:50:29;;;;;;;6.40;1.58;;;;;;;12.38;54.30;100505.09;4388489;32;20046;-76
2021/05/07 07:52:55;;;;;;;10.98;1.73;;;;;;;12.31;54.84;100502.50;4394982;32;20038;-76
2021/05/07 07:55:21;;;;;;;8.77;2.08;;;;;;;12.32;55.38;100498.44;4381775;32;20100;-77
2021/05/07 07:57:46;;;;;;;5.62;1.45;;;;;;;12.71;54.92;100506.31;4393020;32;20060;-75
2021/05/07 08:00:13;;;;;;;6.85;1.85;;;;;;;12.95;53.77;100515.88;4388389;32;20153;-76
2021/05/07 08:02:39;;;;;;;4.50;1.02;;;;;;;12.97;51.82;100513.41;4391050;32;20433;-75
2021/05/07 08:05:05;;;;;;;4.65;1.17;;;;;;;12.89;51.80;100519.78;4389288;32;21517;-76
2021/05/07 08:07:32;;;;;;;7.55;1.67;;;;;;;12.79;52.65;100520.97;4391366;32;20078;-76
2021/05/07 08:09:59;;;;;;;12.43;1.55;;;;;;;12.76;52.03;100525.47;4391599;32;20112;-75
2021/05/07 08:12:25;;;;;;;4.62;1.60;;;;;;;12.65;51.91;100516.62;4389905;32;20870;-75
2021/05/07 08:14:51;;;;;;;7.20;1.40;;;;;;;12.84;51.54;100528.84;4390249;32;20041;-75
2021/05/07 08:17:16;;;;;;;11.43;2.30;;;;;;;12.85;51.68;100541.69;4379500;32;20042;-75
2021/05/07 08:19:43;;;;;;;8.73;1.50;;;;;;;12.91;51.48;100537.03;4391609;32;20445;-75
2021/05/07 08:22:08;;;;;;;7.53;1.48;;;;;;;13.18;50.71;100540.88;4390966;32;20082;-74
2021/05/07 08:24:34;;;;;;;9.43;2.22;;;;;;;13.27;49.75;100542.97;4388492;32;20050;-75
2021/05/07 08:27:00;;;;;;;7.62;1.48;;;;;;;13.19;50.12;100556.59;4388598;32;20480;-74
2021/05/07 08:29:27;;;;;;;6.70;1.55;;;;;;;13.03;49.29;100553.16;4386359;32;20474;-75
2021/05/07 08:31:53;;;;;;;5.50;1.25;;;;;;;13.18;50.05;100551.38;4388160;32;20078;-75
2021/05/07 08:34:20;;;;;;;11.32;1.60;;;;;;;13.17;50.39;100544.97;4385233;32;20082;-75
2021/05/07 08:36:47;;;;;;;2.55;1.20;;;;;;;13.03;50.48;100539.03;4391317;32;20046;-75
2021/05/07 08:39:13;;;;;;;8.05;1.92;;;;;;;12.93;49.51;100546.66;4387426;32;20196;-75
2021/05/07 08:41:43;;;;;;;9.25;2.05;;;;;;;13.22;50.01;100550.00;4387340;32;20054;-74
2021/05/07 08:44:09;;;;;;;7.35;2.03;;;;;;;13.55;49.80;100553.19;4389338;32;20046;-74
2021/05/07 08:46:40;;;;;;;14.20;1.30;;;;;;;13.69;47.62;100564.72;4392686;32;20076;-73
2021/05/07 08:49:07;;;;;;;8.98;1.48;;;;;;;13.64;47.92;100567.38;4387326;32;20147;-74
2021/05/07 08:51:33;;;;;;;8.57;1.62;;;;;;;13.84;48.52;100562.13;4390859;32;20136;-74
2021/05/07 08:53:58;;;;;;;8.45;1.50;;;;;;;14.09;48.00;100571.16;4386651;32;20108;-74
2021/05/07 08:56:25;;;;;;;6.68;2.33;;;;;;;14.17;46.61;100579.37;4386120;32;20124;-75
2021/05/07 08:58:50;;;;;;;11.88;2.20;;;;;;;14.18;47.86;100570.44;4391472;32;20411;-74
2021/05/07 09:01:16;;;;;;;12.00;2.47;;;;;;;14.21;47.15;100569.50;4391524;32;20104;-74
2021/05/07 09:03:47;;;;;;;6.87;1.45;;;;;;;14.08;46.97;100582.94;4389670;32;20120;-74
2021/05/07 09:06:21;;;;;;;6.22;1.73;;;;;;;14.15;45.50;100584.72;4391173;32;20127;-75
2021/05/07 09:08:48;;;;;;;8.02;2.00;;;;;;;14.33;46.35;100588.41;4387858;32;20133;-76
2021/05/07 09:11:15;;;;;;;4.45;1.58;;;;;;;14.63;45.24;100589.59;4390137;32;20473;-75
2021/05/07 09:13:41;;;;;;;13.57;2.33;;;;;;;14.52;44.39;100587.22;4392764;32;20063;-75
2021/05/07 09:16:10;;;;;;;11.65;2.08;;;;;;;14.70;45.53;100595.72;4392420;32;20082;-76
2021/05/07 09:18:50;;;;;;;5.22;1.62;;;;;;;14.96;45.21;100594.16;4389475;32;20050;-76
2021/05/07 09:21:16;;;;;;;5.53;1.23;;;;;;;15.20;43.70;100589.44;4388298;32;20097;-74
2021/05/07 09:23:46;;;;;;;7.68;1.40;;;;;;;15.43;42.68;100596.50;4388332;32;20128;-74
2021/05/07 09:26:14;;;;;;;8.52;1.40;;;;;;;15.42;42.03;100586.44;4388738;32;20078;-75
2021/05/07 09:28:57;;;;;;;12.52;2.83;;;;;;;15.54;42.02;100582.63;4388910;32;20081;-75
2021/05/07 09:31:24;;;;;;;5.65;1.73;;;;;;;15.80;42.15;100595.94;4389799;32;20102;-75
2021/05/07 09:33:50;;;;;;;11.18;1.83;;;;;;;16.21;41.71;100591.53;4392699;32;20108;-74
2021/05/07 09:36:32;;;;;;;10.60;1.90;;;;;;;16.71;39.88;100587.78;4374087;32;20113;-75
2021/05/07 09:38:59;;;;;;;5.00;1.55;;;;;;;16.89;40.17;100590.50;4393185;32;20037;-74
2021/05/07 09:41:25;;;;;;;4.80;1.52;;;;;;;16.89;39.28;100598.22;4391128;32;20108;-75
2021/05/07 09:43:50;;;;;;;7.45;1.75;;;;;;;16.81;39.40;100600.66;4391080;32;20081;-77
2021/05/07 09:46:16;;;;;;;5.95;1.48;;;;;;;16.53;38.95;100601.31;4391201;32;20115;-75
2021/05/07 09:48:42;;;;;;;7.90;1.83;;;;;;;16.53;38.00;100602.09;4392258;32;20093;-76
2021/05/07 09:51:12;;;;;;;9.32;2.10;;;;;;;16.85;37.24;100597.63;4392814;32;20510;-75
2021/05/07 09:53:41;;;;;;;5.72;1.60;;;;;;;17.30;36.02;100595.19;4389074;32;20081;-75
2021/05/07 09:56:16;;;;;;;4.05;1.17;;;;;;;17.82;34.18;100600.06;4388525;32;20081;-74
2021/05/07 09:58:42;;;;;;;4.65;1.67;;;;;;;18.27;33.44;100600.75;4390134;32;20506;-75
2021/05/07 10:01:09;;;;;;;5.32;1.33;;;;;;;18.30;33.52;100596.91;4391685;32;20105;-74
2021/05/07 10:03:36;;;;;;;11.98;1.85;;;;;;;18.69;33.57;100599.09;4376315;32;20093;-75
2021/05/07 10:06:02;;;;;;;5.80;1.50;;;;;;;18.81;34.49;100600.03;4390159;32;20070;-75
2021/05/07 10:08:30;;;;;;;3.72;1.08;;;;;;;18.70;34.71;100602.72;4376938;32;20127;-75
2021/05/07 10:10:58;;;;;;;9.93;1.35;;;;;;;18.54;33.88;100598.38;4388468;32;20580;-75
2021/05/07 10:13:27;;;;;;;4.87;1.30;;;;;;;18.07;35.13;100597.88;4389922;32;20123;-74
2021/05/07 10:16:09;;;;;;;3.55;1.55;;;;;;;17.77;34.83;100603.56;4389874;32;20137;-74
2021/05/07 10:18:38;;;;;;;6.15;1.37;;;;;;;17.49;34.96;100604.38;4389435;32;20065;-74
2021/05/07 10:23:54;;;;;;;8.98;1.40;;;;;;;19.42;31.38;100615.84;3984921;31;15153185;-77
2021/05/07 10:26:33;;;;;;;4.87;1.58;;;;;;;19.42;31.38;100615.84;4436802;32;20072;-74
2021/05/07 10:28:59;;;;;;;5.22;1.15;;;;;;;19.77;31.18;100610.72;4439840;32;20065;-74
2021/05/07 10:31:25;;;;;;;5.75;1.10;;;;;;;20.10;30.26;100613.87;4437922;32;20083;-77
2021/05/07 10:36:40;;;;;;;5.25;1.17;;;;;;;19.56;29.27;100621.44;3952866;32;15722410;-77
2021/05/07 10:39:20;;;;;;;6.18;1.37;;;;;;;19.56;29.27;100621.44;4424696;32;20081;-77
2021/05/07 10:41:48;;;;;;;6.87;1.62;;;;;;;19.29;30.28;100609.69;4425360;32;20033;-77
2021/05/07 10:44:14;;;;;;;8.80;1.37;;;;;;;19.38;29.81;100612.41;4423540;32;20081;-76
2021/05/07 10:46:42;;;;;;;5.40;1.23;;;;;;;19.25;28.94;100612.75;4424408;32;20073;-76
2021/05/07 10:49:08;;;;;;;5.03;1.40;;;;;;;19.41;28.12;100617.09;4423260;32;20081;-76
2021/05/07 10:51:34;;;;;;;3.75;1.23;;;;;;;19.96;27.13;100625.41;4421635;32;20148;-77
2021/05/07 10:54:08;;;;;;;4.50;1.20;;;;;;;20.37;25.46;100621.13;4421807;32;20046;-77
2021/05/07 10:56:37;;;;;;;7.30;1.20;;;;;;;20.73;25.15;100623.16;4421934;32;20121;-76
2021/05/07 10:59:16;;;;;;;4.45;0.90;;;;;;;20.90;25.26;100624.81;4422102;32;20527;-75
2021/05/07 11:01:55;;;;;;;2.75;0.85;;;;;;;21.68;24.43;100618.09;4416422;32;20070;-75
2021/05/07 11:04:21;;;;;;;5.90;1.08;;;;;;;22.30;22.71;100613.94;4412563;32;20078;-75
2021/05/07 11:06:47;;;;;;;5.85;1.60;;;;;;;22.38;23.87;100609.25;4413747;32;20129;-75
2021/05/07 11:11:50;;;;;;;4.95;1.35;;;;;;;20.47;24.63;100620.41;3977489;32;15028880;-77
2021/05/07 11:14:18;;;;;;;2.90;1.05;;;;;;;20.47;24.63;100620.41;4429587;32;21054;-77
2021/05/07 11:16:46;;;;;;;4.07;0.90;;;;;;;19.71;25.36;100613.53;4430849;32;20351;-76
2021/05/07 11:19:33;;;;;;;3.83;1.15;;;;;;;20.11;24.75;100611.78;4424302;32;20470;-77
2021/05/07 11:22:02;;;;;;;3.40;1.08;;;;;;;20.95;23.95;100621.22;4427354;32;20485;-77
2021/05/07 11:24:31;;;;;;;3.83;1.08;;;;;;;21.47;23.74;100615.94;4427347;32;20099;-78
2021/05/07 11:26:57;;;;;;;3.28;1.00;;;;;;;21.84;23.18;100616.56;4429684;32;20045;-75
2021/05/07 11:29:33;;;;;;;4.40;0.77;;;;;;;22.46;22.84;100610.28;4429730;32;20041;-76
2021/05/07 11:37:27;;;;;;;5.53;1.55;;;;;;;23.01;22.87;100615.12;3972820;32;15022395;-76
2021/05/07 11:40:14;;;;;;;2.70;0.93;;;;;;;23.01;22.87;100615.12;4423011;32;20083;-75